Time;durP1;ratioP1;P1;durP2;ratioP2;P2;SDS_P1;SDS_P2;PMS_P1;PMS_P2;Temp;Humidity;BMP_temperature;BMP_pressure;BME280_temperature;BME280_humidity;BME280_pressure;Samples;Min_cycle;Max_cycle;Signal;HPM_P1;HPM_P2
2023/12/22 00:01:57;;;;;;;13.15;2.00;;;8.60;76.30;;;;;;5041632;28;20069;-50
2023/12/22 00:04:24;;;;;;;8.88;1.77;;;8.70;76.50;;;;;;5044638;28;20057;-43
2023/12/22 00:06:54;;;;;;;19.20;2.42;;;8.70;76.60;;;;;;5046542;28;20075;-48
2023/12/22 00:09:21;;;;;;;11.85;2.17;;;8.80;76.50;;;;;;5042636;28;20055;-45
2023/12/22 00:11:49;;;;;;;17.67;2.95;;;8.80;76.50;;;;;;5043702;28;20053;-49
2023/12/22 00:14:16;;;;;;;16.17;2.30;;;8.80;76.00;;;;;;5039928;28;20416;-50
2023/12/22 00:16:43;;;;;;;33.55;3.25;;;8.80;76.00;;;;;;5043988;28;20053;-48
2023/12/22 00:19:10;;;;;;;6.32;1.17;;;8.70;74.80;;;;;;5043111;28;20382;-54
2023/12/22 00:21:38;;;;;;;4.18;0.70;;;8.20;66.20;;;;;;5043803;28;20053;-55
2023/12/22 00:24:07;;;;;;;4.78;0.80;;;8.00;66.60;;;;;;5046921;28;20513;-54
2023/12/22 00:26:34;;;;;;;7.00;0.73;;;7.70;66.40;;;;;;5043622;28;20053;-54
2023/12/22 00:29:01;;;;;;;6.90;0.68;;;7.50;67.00;;;;;;5040616;28;20163;-56
2023/12/22 00:31:28;;;;;;;4.32;0.65;;;7.40;67.80;;;;;;5044355;28;20049;-52
2023/12/22 00:33:55;;;;;;;3.28;0.38;;;7.20;68.90;;;;;;5037315;28;20520;-55
2023/12/22 00:36:24;;;;;;;1.20;0.57;;;7.00;70.30;;;;;;5044396;28;20049;-54
2023/12/22 00:38:51;;;;;;;5.43;0.45;;;6.80;71.30;;;;;;5042929;28;20052;-56
2023/12/22 00:41:20;;;;;;;9.05;1.10;;;6.70;72.80;;;;;;5046403;28;20055;-55
2023/12/22 00:43:47;;;;;;;6.38;1.05;;;6.60;73.70;;;;;;5035985;28;20056;-56
2023/12/22 00:46:14;;;;;;;4.68;0.80;;;6.50;74.80;;;;;;5037485;28;20049;-55
2023/12/22 00:48:42;;;;;;;8.10;1.30;;;6.40;75.90;;;;;;5043320;28;20507;-56
2023/12/22 00:51:09;;;;;;;9.85;1.17;;;6.40;76.40;;;;;;5041619;28;20053;-55
2023/12/22 00:53:37;;;;;;;6.88;1.00;;;6.40;76.90;;;;;;5043070;28;20049;-51
2023/12/22 00:56:05;;;;;;;5.57;1.52;;;6.50;77.30;;;;;;5038554;28;20053;-49
2023/12/22 00:58:33;;;;;;;6.47;1.25;;;6.50;77.60;;;;;;5042758;28;20049;-45
2023/12/22 01:01:01;;;;;;;4.57;1.02;;;6.60;77.80;;;;;;5038765;28;20056;-49
2023/12/22 01:03:28;;;;;;;8.30;0.80;;;6.60;77.90;;;;;;5040186;28;20053;-45
2023/12/22 01:05:55;;;;;;;10.23;2.10;;;6.70;77.80;;;;;;5039824;28;20072;-45
2023/12/22 01:08:22;;;;;;;13.82;2.22;;;6.70;77.80;;;;;;5041183;28;20485;-46
2023/12/22 01:10:50;;;;;;;8.77;1.58;;;6.80;77.90;;;;;;5041358;28;20413;-47
2023/12/22 01:13:17;;;;;;;9.27;1.42;;;6.80;78.50;;;;;;5042273;28;20044;-47
2023/12/22 01:15:46;;;;;;;9.30;1.48;;;6.90;78.30;;;;;;5048608;28;20056;-45
2023/12/22 01:18:13;;;;;;;11.93;1.85;;;6.90;78.30;;;;;;5045776;28;20052;-47
2023/12/22 01:20:40;;;;;;;8.30;1.65;;;6.90;78.40;;;;;;5047746;28;20052;-48
2023/12/22 01:23:07;;;;;;;15.95;1.83;;;7.00;78.50;;;;;;5043223;28;20049;-47
2023/12/22 01:25:35;;;;;;;11.55;1.60;;;7.00;78.50;;;;;;5044265;28;20049;-50
2023/12/22 01:28:02;;;;;;;8.52;1.75;;;7.00;78.60;;;;;;5046174;28;20383;-49
2023/12/22 01:30:29;;;;;;;10.93;1.80;;;7.10;78.60;;;;;;5046476;28;20064;-48
2023/12/22 01:32:58;;;;;;;20.13;1.85;;;7.10;78.70;;;;;;5044171;28;20053;-45
2023/12/22 01:35:25;;;;;;;9.68;1.52;;;7.20;78.90;;;;;;5044848;28;20048;-49
2023/12/22 01:37:52;;;;;;;10.93;1.52;;;7.20;78.90;;;;;;5045216;28;20505;-45
2023/12/22 01:40:20;;;;;;;11.25;1.70;;;7.30;78.90;;;;;;5046366;28;20048;-45
2023/12/22 01:42:47;;;;;;;10.85;1.95;;;7.30;78.80;;;;;;5043424;28;20048;-48
2023/12/22 01:45:14;;;;;;;13.48;1.65;;;7.30;78.80;;;;;;5042852;28;20440;-44
2023/12/22 01:47:42;;;;;;;11.65;1.80;;;7.40;78.90;;;;;;5050236;28;20052;-48
2023/12/22 01:50:12;;;;;;;10.43;1.35;;;7.40;78.70;;;;;;5043163;28;20049;-44
2023/12/22 01:52:40;;;;;;;18.92;2.13;;;7.50;78.70;;;;;;5045765;28;20521;-47
2023/12/22 01:55:10;;;;;;;10.20;1.67;;;7.50;78.60;;;;;;5049853;28;20049;-45
2023/12/22 01:57:40;;;;;;;15.38;2.00;;;7.50;78.60;;;;;;5041720;28;20052;-46
2023/12/22 02:00:09;;;;;;;12.98;2.22;;;7.60;78.60;;;;;;5046114;28;20049;-45
2023/12/22 02:02:38;;;;;;;10.27;1.55;;;7.60;78.70;;;;;;5042527;28;20548;-46
2023/12/22 02:05:06;;;;;;;13.68;1.75;;;7.60;78.60;;;;;;5042810;28;20056;-43
2023/12/22 02:07:34;;;;;;;6.47;1.60;;;7.70;78.70;;;;;;5045877;28;20051;-43
2023/12/22 02:10:03;;;;;;;11.82;1.88;;;7.70;78.60;;;;;;5048488;28;20056;-43
2023/12/22 02:12:30;;;;;;;12.52;2.90;;;7.80;78.50;;;;;;5042865;28;20049;-44
2023/12/22 02:14:58;;;;;;;16.55;2.70;;;7.80;78.50;;;;;;5051666;28;20056;-44
2023/12/22 02:17:30;;;;;;;11.18;2.63;;;7.80;78.20;;;;;;5044643;28;20053;-47
2023/12/22 02:19:59;;;;;;;9.57;2.08;;;7.80;78.20;;;;;;5045089;28;20405;-43
2023/12/22 02:22:26;;;;;;;10.95;2.15;;;7.80;77.80;;;;;;5048059;28;20041;-44
2023/12/22 02:24:54;;;;;;;13.23;2.67;;;7.90;77.70;;;;;;5043001;28;20056;-41
2023/12/22 02:27:29;;;;;;;16.08;3.20;;;7.80;77.70;;;;;;5039326;28;20045;-44
2023/12/22 02:30:03;;;;;;;12.70;2.60;;;7.70;77.90;;;;;;5048169;28;20061;-41
2023/12/22 02:32:35;;;;;;;10.55;2.42;;;7.80;78.00;;;;;;5047150;28;20049;-41
2023/12/22 02:35:07;;;;;;;16.00;3.30;;;7.80;78.10;;;;;;5044727;28;20493;-41
2023/12/22 02:37:36;;;;;;;14.32;3.00;;;7.80;78.10;;;;;;5047762;28;20052;-43
2023/12/22 02:40:06;;;;;;;11.18;2.38;;;7.80;78.50;;;;;;5049213;28;20064;-39
2023/12/22 02:42:35;;;;;;;11.98;2.95;;;7.80;78.10;;;;;;5043335;28;20048;-39
2023/12/22 02:45:02;;;;;;;16.60;3.20;;;7.90;78.20;;;;;;5042782;28;20054;-39
2023/12/22 02:47:32;;;;;;;17.73;3.58;;;7.90;78.40;;;;;;5038409;28;20052;-42
2023/12/22 02:49:59;;;;;;;14.57;3.17;;;7.80;78.20;;;;;;5046576;28;20526;-40
2023/12/22 02:52:26;;;;;;;15.75;3.00;;;7.80;78.40;;;;;;5043711;28;20065;-40
2023/12/22 02:54:53;;;;;;;14.18;3.90;;;7.90;78.70;;;;;;5043543;28;20052;-39
2023/12/22 02:57:22;;;;;;;23.58;3.38;;;7.90;78.80;;;;;;5039658;28;20053;-40
2023/12/22 02:59:50;;;;;;;16.25;3.17;;;7.90;78.90;;;;;;5044433;28;20060;-39
2023/12/22 03:02:17;;;;;;;15.15;2.75;;;7.90;78.80;;;;;;5043784;28;20501;-40
2023/12/22 03:04:46;;;;;;;17.48;3.53;;;8.00;79.00;;;;;;5043957;28;20068;-41
2023/12/22 03:07:14;;;;;;;18.00;3.75;;;8.00;79.20;;;;;;5041109;28;20060;-41
2023/12/22 03:09:42;;;;;;;11.77;3.38;;;8.10;79.10;;;;;;5038428;28;20049;-39
2023/12/22 03:12:10;;;;;;;18.63;3.35;;;8.10;79.20;;;;;;5041534;28;20044;-40
2023/12/22 03:14:39;;;;;;;20.02;3.10;;;8.10;79.00;;;;;;5037904;28;20054;-40
2023/12/22 03:17:07;;;;;;;15.93;3.00;;;8.20;78.80;;;;;;5040368;28;20052;-39
2023/12/22 03:19:35;;;;;;;21.35;3.20;;;8.20;78.50;;;;;;5046503;28;20057;-48
2023/12/22 03:22:02;;;;;;;17.70;3.25;;;8.10;78.20;;;;;;5040729;28;20053;-44
2023/12/22 03:24:30;;;;;;;19.77;3.13;;;8.10;78.70;;;;;;5042971;28;20057;-47
2023/12/22 03:26:57;;;;;;;16.23;4.15;;;8.10;78.80;;;;;;5041871;28;20056;-42
2023/12/22 03:29:24;;;;;;;16.63;4.15;;;8.10;78.80;;;;;;5039062;28;20055;-46
2023/12/22 03:31:53;;;;;;;19.52;3.72;;;8.20;78.70;;;;;;5041359;28;20053;-46
2023/12/22 03:34:20;;;;;;;19.00;3.38;;;8.20;78.70;;;;;;5036223;28;20049;-45
2023/12/22 03:36:48;;;;;;;11.93;2.92;;;8.30;78.70;;;;;;5043933;28;20049;-47
2023/12/22 03:39:16;;;;;;;24.27;2.90;;;8.30;78.70;;;;;;5042380;28;20486;-43
2023/12/22 03:41:43;;;;;;;21.40;2.83;;;8.30;78.70;;;;;;5040376;28;20056;-48
2023/12/22 03:44:11;;;;;;;19.88;2.63;;;8.40;78.60;;;;;;5038344;28;20060;-44
2023/12/22 03:46:38;;;;;;;22.60;3.20;;;8.40;78.70;;;;;;5045262;28;20072;-50
2023/12/22 03:49:06;;;;;;;20.52;2.60;;;8.50;78.80;;;;;;5039129;28;20409;-46
2023/12/22 03:51:34;;;;;;;18.35;2.90;;;8.50;78.70;;;;;;5042676;28;20049;-47
2023/12/22 03:54:01;;;;;;;19.17;2.90;;;8.60;78.60;;;;;;5037669;28;20131;-48
2023/12/22 03:56:28;;;;;;;19.65;2.88;;;8.60;78.30;;;;;;5041572;28;20052;-42
2023/12/22 03:58:56;;;;;;;20.88;3.75;;;8.60;78.30;;;;;;5037739;28;20587;-49
2023/12/22 04:01:24;;;;;;;18.65;2.47;;;8.60;78.20;;;;;;5038025;28;20478;-50
2023/12/22 04:03:51;;;;;;;18.58;2.85;;;8.70;78.40;;;;;;5041417;28;20388;-44
2023/12/22 04:06:20;;;;;;;20.88;2.53;;;8.70;78.50;;;;;;5037369;28;20044;-43
2023/12/22 04:08:47;;;;;;;16.75;2.67;;;8.80;78.40;;;;;;5036801;28;20544;-45
2023/12/22 04:11:14;;;;;;;27.83;3.03;;;8.80;78.20;;;;;;5041567;28;20548;-47
2023/12/22 04:13:41;;;;;;;23.30;3.85;;;8.80;78.00;;;;;;5039934;28;20057;-45
2023/12/22 04:16:08;;;;;;;24.05;3.13;;;8.80;78.10;;;;;;5043979;28;20446;-48
2023/12/22 04:18:36;;;;;;;17.58;2.42;;;8.90;77.90;;;;;;5036139;28;20052;-45
2023/12/22 04:21:03;;;;;;;19.25;3.13;;;9.00;78.00;;;;;;5040042;28;20053;-42
2023/12/22 04:23:32;;;;;;;20.90;2.92;;;9.00;77.60;;;;;;5038381;28;20493;-45
2023/12/22 04:25:59;;;;;;;24.98;3.53;;;9.00;77.30;;;;;;5042300;28;20057;-49
2023/12/22 04:28:26;;;;;;;14.90;2.85;;;9.00;76.80;;;;;;5041710;28;20049;-49
2023/12/22 04:30:53;;;;;;;19.00;3.55;;;9.00;76.70;;;;;;5038642;28;20060;-40
2023/12/22 04:33:21;;;;;;;18.17;2.65;;;9.10;76.40;;;;;;5037503;28;20497;-40
2023/12/22 04:35:48;;;;;;;21.70;3.10;;;9.00;75.30;;;;;;5038172;28;20137;-39
2023/12/22 04:38:15;;;;;;;16.17;2.60;;;9.10;75.20;;;;;;5041101;28;20056;-39
2023/12/22 04:40:44;;;;;;;21.52;2.83;;;9.10;75.40;;;;;;5041532;28;20049;-38
2023/12/22 04:43:11;;;;;;;16.30;2.85;;;9.20;75.00;;;;;;5040469;28;20504;-39
2023/12/22 04:45:38;;;;;;;15.32;2.42;;;9.10;73.80;;;;;;5037563;28;20064;-38
2023/12/22 04:48:07;;;;;;;10.48;2.40;;;9.10;74.30;;;;;;5042342;28;20489;-39
2023/12/22 04:50:34;;;;;;;13.35;2.55;;;9.10;73.90;;;;;;5042057;28;20520;-38
2023/12/22 04:53:01;;;;;;;12.82;2.10;;;9.20;74.20;;;;;;5042832;28;20053;-38
2023/12/22 04:55:29;;;;;;;20.45;2.78;;;9.20;73.90;;;;;;5047364;28;20497;-38
2023/12/22 04:57:59;;;;;;;16.20;2.30;;;9.20;74.10;;;;;;5038606;28;20060;-38
2023/12/22 05:36:59;;;;;;;20.10;3.65;;;9.30;73.30;;;;;;5063817;28;20484;-36
2023/12/22 05:39:26;;;;;;;15.50;2.88;;;9.30;73.60;;;;;;5051473;28;20649;-47
2023/12/22 05:41:54;;;;;;;18.08;2.67;;;9.30;73.90;;;;;;5055176;28;20404;-45
2023/12/22 05:44:22;;;;;;;23.55;3.72;;;9.20;72.90;;;;;;5048689;28;20052;-47
2023/12/22 05:46:49;;;;;;;21.20;3.35;;;9.30;73.80;;;;;;5054146;28;20063;-49
2023/12/22 05:49:16;;;;;;;15.85;2.83;;;9.30;74.00;;;;;;5049724;28;20405;-48
2023/12/22 05:51:44;;;;;;;19.80;3.55;;;9.40;73.50;;;;;;5052074;28;20048;-50
2023/12/22 05:54:12;;;;;;;24.92;3.92;;;9.40;73.30;;;;;;5049546;28;20497;-47
2023/12/22 05:56:40;;;;;;;22.13;3.25;;;9.50;73.00;;;;;;5054989;28;20044;-47
2023/12/22 05:59:07;;;;;;;19.52;3.17;;;9.50;73.20;;;;;;5044749;28;20080;-44
2023/12/22 06:01:34;;;;;;;23.90;3.65;;;9.60;73.00;;;;;;5050293;28;20056;-44
2023/12/22 06:04:01;;;;;;;20.23;2.97;;;9.60;72.60;;;;;;5054587;28;20060;-49
2023/12/22 06:06:29;;;;;;;30.80;4.22;;;9.60;71.90;;;;;;5053623;28;20060;-49
2023/12/22 06:08:57;;;;;;;24.00;4.30;;;9.60;70.50;;;;;;5037718;28;20057;-51
2023/12/22 06:11:25;;;;;;;22.98;2.47;;;9.60;70.60;;;;;;5009783;28;20423;-47
2023/12/22 06:13:53;;;;;;;21.00;3.35;;;9.70;70.10;;;;;;5005722;28;20042;-49
2023/12/22 06:37:28;;;;;;;21.33;3.17;;;9.90;68.60;;;;;;5015540;28;20030;-48
2023/12/22 06:39:56;;;;;;;21.60;3.30;;;9.90;67.40;;;;;;4987738;28;20058;-45
2023/12/22 06:42:23;;;;;;;18.02;2.67;;;9.90;67.30;;;;;;4968469;28;20504;-48
2023/12/22 06:44:50;;;;;;;16.30;2.85;;;9.90;68.10;;;;;;4989603;28;20058;-42
2023/12/22 06:47:18;;;;;;;21.70;3.17;;;9.90;68.10;;;;;;4991112;28;20053;-49
2023/12/22 06:49:45;;;;;;;21.45;3.47;;;9.90;68.10;;;;;;4981019;28;20050;-36
2023/12/22 06:52:12;;;;;;;16.13;2.65;;;10.00;68.30;;;;;;4984913;28;20050;-37
2023/12/22 06:54:41;;;;;;;21.63;3.53;;;10.00;68.60;;;;;;4988103;28;20062;-37
2023/12/22 06:57:08;;;;;;;20.25;2.95;;;10.10;68.80;;;;;;4990820;28;20054;-37
2023/12/22 06:59:35;;;;;;;17.98;2.63;;;10.10;68.60;;;;;;4987935;28;20050;-36
2023/12/22 07:02:02;;;;;;;21.73;2.95;;;10.10;68.80;;;;;;4988079;28;20061;-37
2023/12/22 07:04:30;;;;;;;21.52;2.75;;;10.10;68.90;;;;;;4986075;28;20058;-38
2023/12/22 07:06:57;;;;;;;22.73;2.85;;;10.20;69.20;;;;;;4985035;28;20587;-37
2023/12/22 07:09:33;;;;;;;22.63;4.18;;;10.20;69.20;;;;;;4991156;28;20418;-36
2023/12/22 07:12:03;;;;;;;18.75;3.13;;;10.20;68.60;;;;;;4988006;28;20060;-37
2023/12/22 07:14:30;;;;;;;13.32;2.53;;;10.20;69.20;;;;;;4985266;28;20050;-38
2023/12/22 07:17:00;;;;;;;14.93;2.50;;;10.30;69.10;;;;;;4991165;28;20065;-38
2023/12/22 07:19:27;;;;;;;14.13;2.25;;;10.30;68.90;;;;;;4982566;28;20054;-36
2023/12/22 07:21:54;;;;;;;11.57;2.50;;;10.30;68.80;;;;;;4986943;28;20062;-37
2023/12/22 07:24:22;;;;;;;14.13;1.55;;;10.30;67.40;;;;;;4991567;28;20474;-36
2023/12/22 07:26:49;;;;;;;4.78;1.00;;;10.00;63.50;;;;;;4990969;28;20054;-37
2023/12/22 07:29:18;;;;;;;4.47;0.88;;;9.90;63.40;;;;;;4987181;28;20050;-37
2023/12/22 07:31:45;;;;;;;6.40;1.02;;;9.90;64.40;;;;;;4986353;28;20054;-36
2023/12/22 07:34:12;;;;;;;8.10;1.48;;;9.80;65.10;;;;;;4983597;28;20501;-37
2023/12/22 07:36:39;;;;;;;9.80;1.20;;;9.80;65.30;;;;;;4985743;28;20058;-37
2023/12/22 07:39:07;;;;;;;8.18;1.15;;;9.80;65.70;;;;;;5000688;28;20053;-37
2023/12/22 07:41:34;;;;;;;4.25;0.98;;;9.70;66.10;;;;;;5006717;28;20062;-37
2023/12/22 07:44:01;;;;;;;6.97;1.48;;;9.60;66.20;;;;;;5002713;28;20050;-38
2023/12/22 07:46:30;;;;;;;13.05;1.67;;;9.60;66.80;;;;;;5003665;28;20236;-37
2023/12/22 07:48:57;;;;;;;7.65;1.33;;;9.50;67.20;;;;;;5007780;28;20050;-38
2023/12/22 07:51:25;;;;;;;12.02;2.17;;;9.40;67.40;;;;;;5005600;28;20042;-37
2023/12/22 07:53:52;;;;;;;10.13;1.63;;;9.40;68.20;;;;;;5001127;28;20054;-38
2023/12/22 07:56:19;;;;;;;9.40;1.58;;;9.40;68.70;;;;;;5002023;28;20522;-37
2023/12/22 07:58:46;;;;;;;8.88;1.35;;;9.40;69.20;;;;;;4999452;28;20046;-37
2023/12/22 08:01:15;;;;;;;11.65;1.90;;;9.40;69.60;;;;;;5007687;28;20053;-47
2023/12/22 08:03:43;;;;;;;11.18;2.13;;;9.40;69.90;;;;;;5000789;28;20073;-43
2023/12/22 08:06:10;;;;;;;14.85;2.83;;;9.50;70.30;;;;;;5001941;28;20506;-51
2023/12/22 08:08:38;;;;;;;14.50;2.08;;;9.50;70.90;;;;;;5004684;28;20058;-48
2023/12/22 08:11:05;;;;;;;29.58;4.60;;;9.50;71.40;;;;;;5004612;28;20069;-45
2023/12/22 08:13:32;;;;;;;23.52;3.53;;;9.50;71.70;;;;;;5004332;28;20053;-49
2023/12/22 08:15:59;;;;;;;25.83;3.70;;;9.60;72.10;;;;;;4996655;28;20069;-50
2023/12/22 08:18:26;;;;;;;20.23;3.35;;;9.60;72.30;;;;;;5001175;28;20054;-50
2023/12/22 08:20:55;;;;;;;28.08;4.13;;;9.60;72.70;;;;;;5002058;28;20054;-46
2023/12/22 08:23:22;;;;;;;25.50;4.13;;;9.60;73.00;;;;;;5008754;28;20068;-48
2023/12/22 08:25:49;;;;;;;21.52;3.45;;;9.60;73.20;;;;;;5007152;28;20073;-50
2023/12/22 08:28:17;;;;;;;31.48;4.05;;;9.70;73.60;;;;;;5004966;28;20050;-50
2023/12/22 08:30:44;;;;;;;26.90;4.28;;;9.70;73.60;;;;;;5008083;28;20130;-51
2023/12/22 08:33:11;;;;;;;25.73;4.63;;;9.80;73.80;;;;;;4998389;28;20054;-41
2023/12/22 08:35:38;;;;;;;31.60;5.25;;;9.80;74.00;;;;;;5009673;28;20534;-52
2023/12/22 08:38:08;;;;;;;30.20;4.25;;;9.90;74.30;;;;;;5007577;28;20061;-51
2023/12/22 08:40:35;;;;;;;38.10;4.78;;;9.90;74.30;;;;;;5002290;28;20065;-51
2023/12/22 08:43:02;;;;;;;27.92;4.70;;;10.00;74.40;;;;;;5006410;28;20057;-51
2023/12/22 08:45:30;;;;;;;30.60;5.10;;;10.00;74.60;;;;;;5009605;28;20057;-50
2023/12/22 08:47:57;;;;;;;30.10;4.30;;;10.10;74.20;;;;;;5016606;28;20414;-47
2023/12/22 08:50:25;;;;;;;28.33;4.80;;;10.10;73.70;;;;;;4996883;28;20054;-51
2023/12/22 08:52:53;;;;;;;31.92;5.65;;;10.10;72.80;;;;;;5012658;28;20049;-49
2023/12/22 08:55:21;;;;;;;35.03;4.63;;;10.10;72.90;;;;;;5007821;28;20064;-47
2023/12/22 08:57:48;;;;;;;29.95;4.13;;;10.10;72.40;;;;;;5008254;28;20050;-50
2023/12/22 09:00:16;;;;;;;27.10;4.28;;;10.20;72.50;;;;;;4997700;28;20494;-50
2023/12/22 09:02:44;;;;;;;33.13;4.75;;;10.20;72.50;;;;;;5005383;28;20053;-51
2023/12/22 09:05:11;;;;;;;29.60;4.32;;;10.20;72.20;;;;;;5011402;28;20054;-46
2023/12/22 09:07:39;;;;;;;30.17;4.03;;;10.20;71.80;;;;;;5012768;28;20494;-50
2023/12/22 09:10:07;;;;;;;32.72;4.60;;;10.30;71.60;;;;;;5003640;28;20061;-50
2023/12/22 09:12:35;;;;;;;32.92;4.18;;;10.30;71.90;;;;;;5003384;28;20521;-52
2023/12/22 09:15:03;;;;;;;25.05;4.82;;;10.30;71.90;;;;;;4999068;28;20042;-50
2023/12/22 09:17:30;;;;;;;25.88;4.63;;;10.30;70.90;;;;;;5012252;28;20442;-48
2023/12/22 09:19:58;;;;;;;26.73;4.18;;;10.40;71.50;;;;;;5015367;28;20053;-50
2023/12/22 09:22:25;;;;;;;28.02;4.60;;;10.40;71.10;;;;;;5006756;28;20050;-50
2023/12/22 09:24:52;;;;;;;31.15;3.95;;;10.50;71.30;;;;;;5008128;28;20050;-52
2023/12/22 09:27:19;;;;;;;32.85;4.35;;;10.50;71.10;;;;;;5009397;28;20049;-45
2023/12/22 09:29:48;;;;;;;28.25;4.20;;;10.60;71.30;;;;;;5010225;28;20417;-51
2023/12/22 09:32:16;;;;;;;21.13;3.60;;;10.60;70.80;;;;;;5011765;28;20062;-51
2023/12/22 09:34:43;;;;;;;22.77;4.15;;;10.60;70.80;;;;;;5004125;28;20073;-47
2023/12/22 09:37:11;;;;;;;33.65;5.15;;;10.60;70.70;;;;;;5010094;28;20058;-43
2023/12/22 09:39:38;;;;;;;39.60;4.97;;;10.70;70.30;;;;;;5004570;28;20434;-52
2023/12/22 09:42:06;;;;;;;21.67;3.60;;;10.70;69.20;;;;;;5002781;28;20061;-55
2023/12/22 09:44:35;;;;;;;29.00;3.83;;;10.70;68.70;;;;;;4993178;28;20054;-53
2023/12/22 09:47:06;;;;;;;31.48;3.83;;;10.60;70.10;;;;;;5004127;28;20042;-49
2023/12/22 09:49:34;;;;;;;22.73;4.15;;;10.60;69.10;;;;;;4999527;28;20494;-54
2023/12/22 09:52:03;;;;;;;26.50;3.67;;;10.70;69.90;;;;;;5004224;28;20068;-54
2023/12/22 09:54:31;;;;;;;29.75;4.65;;;10.60;69.60;;;;;;5004125;28;20498;-52
2023/12/22 09:57:00;;;;;;;19.33;3.67;;;10.50;68.90;;;;;;5007283;28;20061;-52
2023/12/22 09:59:29;;;;;;;23.45;3.83;;;10.70;70.10;;;;;;4997291;28;20062;-55
2023/12/22 10:01:58;;;;;;;24.05;3.40;;;10.70;69.90;;;;;;5000886;28;20057;-52
2023/12/22 10:04:27;;;;;;;15.40;3.22;;;10.70;69.50;;;;;;5008843;28;20394;-53
2023/12/22 10:07:00;;;;;;;18.77;3.40;;;10.70;69.80;;;;;;4993336;28;20487;-54
2023/12/22 10:09:28;;;;;;;21.03;3.83;;;10.80;69.50;;;;;;5008186;28;20050;-54
2023/12/22 10:11:57;;;;;;;18.30;2.70;;;10.80;68.60;;;;;;5005896;28;20054;-53
2023/12/22 10:14:26;;;;;;;19.70;3.15;;;10.80;69.10;;;;;;5002033;28;20491;-53
2023/12/22 10:16:53;;;;;;;20.17;3.30;;;10.90;69.40;;;;;;5003374;28;20498;-55
2023/12/22 10:19:21;;;;;;;9.98;1.90;;;10.90;68.40;;;;;;5007163;28;20062;-43
2023/12/22 10:21:51;;;;;;;12.55;2.75;;;10.90;69.30;;;;;;5007856;28;20053;-43
2023/12/22 10:24:37;;;;;;;13.02;2.40;;;10.90;68.70;;;;;;5005931;28;20056;-40
2023/12/22 10:27:05;;;;;;;11.38;2.00;;;11.00;68.30;;;;;;5001476;28;20050;-44
2023/12/22 10:29:33;;;;;;;11.98;2.80;;;11.00;68.60;;;;;;5002604;28;20426;-45
2023/12/22 10:32:02;;;;;;;13.50;2.05;;;11.00;68.80;;;;;;5006080;28;20495;-42
2023/12/22 10:34:30;;;;;;;7.60;1.85;;;11.10;68.70;;;;;;5003181;28;20050;-43
2023/12/22 10:37:00;;;;;;;12.63;2.13;;;11.20;68.70;;;;;;5007397;28;20054;-40
2023/12/22 10:39:29;;;;;;;7.57;1.40;;;11.10;68.70;;;;;;5001140;28;20053;-41
2023/12/22 10:41:57;;;;;;;6.97;1.48;;;11.30;69.10;;;;;;5003036;28;20054;-41
2023/12/22 10:44:26;;;;;;;7.03;1.60;;;11.30;68.70;;;;;;5005826;28;20061;-41
2023/12/22 10:46:54;;;;;;;8.57;1.27;;;11.30;68.50;;;;;;5006506;28;20054;-41
2023/12/22 10:49:22;;;;;;;7.38;1.45;;;11.30;68.50;;;;;;5005307;28;20057;-41
2023/12/22 10:51:51;;;;;;;10.45;1.85;;;11.30;68.60;;;;;;5000925;28;20054;-41
